Time;durP1;ratioP1;P1;durP2;ratioP2;P2;SDS_P1;SDS_P2;PMS_P1;PMS_P2;Temp;Humidity;BMP_temperature;BMP_pressure;BME280_temperature;BME280_humidity;BME280_pressure;Samples;Min_cycle;Max_cycle;Signal;HPM_P1;HPM_P2
2022/05/25 00:00:00;;;;;;;0.5;0.5;;;;;;;12.7;100.0;100950;;;;
2022/05/25 00:01:01;;;;;;;0.5;0.5;;;;;;;12.7;100.0;100950;;;;
2022/05/25 00:02:01;;;;;;;0.5;0.5;;;;;;;12.8;100.0;100950;;;;
2022/05/25 00:03:00;;;;;;;0.6;0.6;;;;;;;12.8;100.0;100950;;;;
2022/05/25 00:04:00;;;;;;;0.6;0.6;;;;;;;12.5;100.0;100950;;;;
2022/05/25 00:05:00;;;;;;;0.6;0.6;;;;;;;12.5;100.0;100950;;;;
2022/05/25 00:06:00;;;;;;;0.6;0.6;;;;;;;12.6;100.0;100960;;;;
2022/05/25 00:07:00;;;;;;;0.6;0.6;;;;;;;12.6;100.0;100960;;;;
2022/05/25 00:08:00;;;;;;;0.6;0.6;;;;;;;12.5;100.0;100960;;;;
2022/05/25 00:09:00;;;;;;;0.6;0.6;;;;;;;12.5;100.0;100960;;;;
2022/05/25 00:10:00;;;;;;;0.6;0.6;;;;;;;12.6;100.0;100960;;;;
2022/05/25 00:11:00;;;;;;;0.6;0.6;;;;;;;12.6;100.0;100960;;;;
2022/05/25 00:12:01;;;;;;;0.6;0.6;;;;;;;12.7;100.0;100960;;;;
2022/05/25 00:13:01;;;;;;;0.6;0.6;;;;;;;12.7;100.0;100960;;;;
2022/05/25 00:14:00;;;;;;;0.6;0.6;;;;;;;12.7;100.0;100970;;;;
2022/05/25 00:15:00;;;;;;;0.6;0.6;;;;;;;12.7;100.0;100970;;;;
2022/05/25 00:16:00;;;;;;;0.6;0.6;;;;;;;12.7;100.0;100970;;;;
2022/05/25 00:17:00;;;;;;;0.6;0.6;;;;;;;12.7;100.0;100970;;;;
2022/05/25 00:18:00;;;;;;;0.6;0.6;;;;;;;12.8;100.0;100970;;;;
2022/05/25 00:20:00;;;;;;;0.6;0.6;;;;;;;12.7;100.0;100970;;;;
2022/05/25 00:21:00;;;;;;;0.6;0.6;;;;;;;12.7;100.0;100970;;;;
2022/05/25 00:22:00;;;;;;;0.6;0.6;;;;;;;12.6;100.0;100980;;;;
2022/05/25 00:23:00;;;;;;;0.8;0.8;;;;;;;12.6;100.0;100980;;;;
2022/05/25 00:24:00;;;;;;;0.8;0.8;;;;;;;12.7;100.0;100970;;;;
2022/05/25 00:25:00;;;;;;;0.8;0.8;;;;;;;12.7;100.0;100970;;;;
2022/05/25 00:26:00;;;;;;;0.8;0.8;;;;;;;12.7;100.0;100970;;;;
2022/05/25 00:27:00;;;;;;;0.8;0.8;;;;;;;12.7;100.0;100970;;;;
2022/05/25 00:28:01;;;;;;;0.8;0.8;;;;;;;12.7;100.0;100980;;;;
2022/05/25 00:29:01;;;;;;;0.8;0.8;;;;;;;12.7;100.0;100980;;;;
2022/05/25 00:30:01;;;;;;;0.8;0.8;;;;;;;12.6;100.0;100980;;;;
2022/05/25 00:31:00;;;;;;;0.8;0.8;;;;;;;12.6;100.0;100980;;;;
2022/05/25 00:32:00;;;;;;;0.8;0.8;;;;;;;12.6;100.0;100980;;;;
2022/05/25 00:33:00;;;;;;;0.8;0.8;;;;;;;12.6;100.0;100980;;;;
2022/05/25 00:34:00;;;;;;;0.8;0.8;;;;;;;12.5;100.0;100980;;;;
2022/05/25 00:35:01;;;;;;;0.8;0.8;;;;;;;12.5;100.0;100980;;;;
2022/05/25 00:36:00;;;;;;;0.8;0.8;;;;;;;12.5;100.0;100980;;;;
2022/05/25 00:37:00;;;;;;;0.8;0.8;;;;;;;12.5;100.0;100980;;;;
2022/05/25 00:38:00;;;;;;;0.8;0.8;;;;;;;12.5;100.0;100980;;;;
2022/05/25 00:39:00;;;;;;;0.8;0.8;;;;;;;12.5;100.0;100980;;;;
2022/05/25 00:40:01;;;;;;;0.8;0.8;;;;;;;12.5;100.0;100980;;;;
2022/05/25 00:41:00;;;;;;;0.8;0.8;;;;;;;12.5;100.0;100980;;;;
2022/05/25 00:42:02;;;;;;;0.8;0.8;;;;;;;12.5;100.0;100980;;;;
2022/05/25 00:43:00;;;;;;;0.7;0.7;;;;;;;12.5;100.0;100980;;;;
2022/05/25 00:44:00;;;;;;;0.7;0.7;;;;;;;12.5;100.0;100980;;;;
2022/05/25 00:45:00;;;;;;;0.7;0.7;;;;;;;12.5;100.0;100980;;;;
2022/05/25 00:46:04;;;;;;;0.7;0.7;;;;;;;12.6;100.0;100980;;;;
2022/05/25 00:47:00;;;;;;;0.7;0.7;;;;;;;12.6;100.0;100980;;;;
2022/05/25 00:48:01;;;;;;;0.7;0.7;;;;;;;12.5;100.0;100990;;;;
2022/05/25 00:49:03;;;;;;;0.7;0.7;;;;;;;12.5;100.0;100990;;;;
2022/05/25 00:50:00;;;;;;;0.7;0.7;;;;;;;12.5;100.0;100980;;;;
2022/05/25 00:52:04;;;;;;;0.7;0.7;;;;;;;12.4;100.0;100990;;;;
2022/05/25 00:53:00;;;;;;;0.7;0.7;;;;;;;12.4;100.0;100990;;;;
2022/05/25 00:54:04;;;;;;;0.7;0.7;;;;;;;12.4;100.0;100990;;;;
2022/05/25 00:55:02;;;;;;;0.7;0.7;;;;;;;12.4;100.0;100990;;;;
2022/05/25 00:56:00;;;;;;;0.7;0.7;;;;;;;12.5;100.0;100990;;;;
2022/05/25 00:57:04;;;;;;;0.7;0.7;;;;;;;12.5;100.0;100990;;;;
2022/05/25 00:58:00;;;;;;;0.7;0.7;;;;;;;12.4;100.0;100990;;;;
2022/05/25 00:59:03;;;;;;;0.7;0.7;;;;;;;12.4;100.0;100990;;;;
2022/05/25 01:00:04;;;;;;;0.7;0.7;;;;;;;12.5;100.0;100980;;;;
2022/05/25 01:01:00;;;;;;;0.7;0.7;;;;;;;12.5;100.0;100980;;;;
2022/05/25 01:02:00;;;;;;;0.7;0.7;;;;;;;12.4;100.0;100980;;;;
2022/05/25 01:03:02;;;;;;;0.7;0.7;;;;;;;12.4;100.0;100980;;;;
2022/05/25 01:04:00;;;;;;;0.7;0.7;;;;;;;12.4;100.0;100990;;;;
2022/05/25 01:05:00;;;;;;;0.7;0.7;;;;;;;12.4;100.0;100990;;;;
2022/05/25 01:06:00;;;;;;;0.7;0.7;;;;;;;12.3;100.0;100990;;;;
2022/05/25 01:07:08;;;;;;;0.7;0.7;;;;;;;12.3;100.0;100990;;;;
2022/05/25 01:08:08;;;;;;;0.7;0.7;;;;;;;12.3;100.0;100990;;;;
2022/05/25 01:09:03;;;;;;;0.7;0.7;;;;;;;12.3;100.0;100990;;;;
2022/05/25 01:10:10;;;;;;;0.7;0.7;;;;;;;12.3;100.0;100990;;;;
2022/05/25 01:11:10;;;;;;;0.7;0.7;;;;;;;12.3;100.0;100990;;;;
2022/05/25 01:12:00;;;;;;;0.7;0.7;;;;;;;12.3;100.0;100990;;;;
2022/05/25 01:13:10;;;;;;;0.7;0.7;;;;;;;12.3;100.0;100990;;;;
2022/05/25 01:14:07;;;;;;;0.7;0.7;;;;;;;12.4;100.0;100990;;;;
2022/05/25 01:15:10;;;;;;;0.7;0.7;;;;;;;12.4;100.0;100990;;;;
2022/05/25 01:16:11;;;;;;;0.7;0.7;;;;;;;12.3;100.0;101000;;;;
2022/05/25 01:17:03;;;;;;;0.7;0.7;;;;;;;12.3;100.0;101000;;;;
2022/05/25 01:18:10;;;;;;;0.7;0.7;;;;;;;12.3;100.0;101000;;;;
2022/05/25 01:19:01;;;;;;;0.7;0.7;;;;;;;12.3;100.0;101000;;;;
2022/05/25 01:20:10;;;;;;;0.7;0.7;;;;;;;12.3;100.0;101000;;;;
2022/05/25 01:21:03;;;;;;;0.7;0.7;;;;;;;12.3;100.0;101000;;;;
2022/05/25 01:22:09;;;;;;;0.7;0.7;;;;;;;12.3;100.0;101000;;;;
2022/05/25 01:23:10;;;;;;;0.6;0.6;;;;;;;12.3;100.0;101000;;;;
2022/05/25 01:24:03;;;;;;;0.6;0.6;;;;;;;12.3;100.0;101000;;;;
2022/05/25 01:25:10;;;;;;;0.6;0.6;;;;;;;12.3;100.0;101000;;;;
2022/05/25 01:26:10;;;;;;;0.6;0.6;;;;;;;12.2;100.0;101000;;;;
2022/05/25 01:27:10;;;;;;;0.6;0.6;;;;;;;12.2;100.0;101000;;;;
2022/05/25 01:28:09;;;;;;;0.6;0.6;;;;;;;12.2;100.0;101000;;;;
2022/05/25 01:29:07;;;;;;;0.6;0.6;;;;;;;12.2;100.0;101000;;;;
2022/05/25 01:30:04;;;;;;;0.6;0.6;;;;;;;12.1;100.0;101000;;;;
2022/05/25 01:31:05;;;;;;;0.6;0.6;;;;;;;12.1;100.0;101000;;;;
2022/05/25 01:32:07;;;;;;;0.6;0.6;;;;;;;12.1;100.0;101010;;;;
2022/05/25 01:33:10;;;;;;;0.6;0.6;;;;;;;12.1;100.0;101010;;;;
2022/05/25 01:34:10;;;;;;;0.6;0.6;;;;;;;12.1;100.0;101010;;;;
2022/05/25 01:35:05;;;;;;;0.6;0.6;;;;;;;12.1;100.0;101010;;;;
2022/05/25 01:36:10;;;;;;;0.6;0.6;;;;;;;12.1;100.0;101010;;;;
2022/05/25 01:37:10;;;;;;;0.6;0.6;;;;;;;12.1;100.0;101010;;;;
2022/05/25 01:38:08;;;;;;;0.6;0.6;;;;;;;12.1;100.0;101010;;;;
2022/05/25 01:39:04;;;;;;;0.6;0.6;;;;;;;12.1;100.0;101010;;;;
2022/05/25 01:40:00;;;;;;;0.6;0.6;;;;;;;12.1;100.0;101010;;;;
2022/05/25 01:41:10;;;;;;;0.6;0.6;;;;;;;12.1;100.0;101010;;;;
2022/05/25 01:42:05;;;;;;;0.6;0.6;;;;;;;12.0;100.0;101010;;;;
2022/05/25 01:43:04;;;;;;;0.7;0.7;;;;;;;12.0;100.0;101010;;;;
2022/05/25 01:44:05;;;;;;;0.7;0.7;;;;;;;12.0;100.0;101000;;;;
2022/05/25 01:45:02;;;;;;;0.7;0.7;;;;;;;12.0;100.0;101000;;;;
2022/05/25 01:46:06;;;;;;;0.7;0.7;;;;;;;12.0;100.0;101000;;;;
2022/05/25 01:47:04;;;;;;;0.7;0.7;;;;;;;12.0;100.0;101000;;;;
2022/05/25 01:48:03;;;;;;;0.7;0.7;;;;;;;12.0;100.0;101010;;;;
2022/05/25 01:49:03;;;;;;;0.7;0.7;;;;;;;12.0;100.0;101010;;;;
2022/05/25 01:50:02;;;;;;;0.7;0.7;;;;;;;11.9;100.0;101010;;;;
2022/05/25 01:51:03;;;;;;;0.7;0.7;;;;;;;11.9;100.0;101010;;;;
2022/05/25 01:52:02;;;;;;;0.7;0.7;;;;;;;11.9;100.0;101010;;;;
2022/05/25 01:53:01;;;;;;;0.7;0.7;;;;;;;11.9;100.0;101010;;;;
2022/05/25 01:54:02;;;;;;;0.7;0.7;;;;;;;11.9;100.0;101010;;;;
2022/05/25 01:55:04;;;;;;;0.7;0.7;;;;;;;11.9;100.0;101010;;;;
2022/05/25 01:56:03;;;;;;;0.7;0.7;;;;;;;11.9;100.0;101010;;;;
2022/05/25 01:57:03;;;;;;;0.7;0.7;;;;;;;11.9;100.0;101010;;;;
2022/05/25 01:58:03;;;;;;;0.7;0.7;;;;;;;11.9;100.0;101010;;;;
2022/05/25 01:59:02;;;;;;;0.7;0.7;;;;;;;11.9;100.0;101010;;;;
2022/05/25 02:00:00;;;;;;;0.7;0.7;;;;;;;11.9;100.0;101010;;;;
2022/05/25 02:01:00;;;;;;;0.7;0.7;;;;;;;11.9;100.0;101010;;;;
2022/05/25 02:05:03;;;;;;;0.7;0.7;;;;;;;11.9;100.0;101020;;;;
2022/05/25 02:06:10;;;;;;;0.7;0.7;;;;;;;11.9;100.0;101020;;;;
2022/05/25 02:07:06;;;;;;;0.7;0.7;;;;;;;11.9;100.0;101020;;;;
2022/05/25 02:08:10;;;;;;;0.7;0.7;;;;;;;11.9;100.0;101010;;;;
2022/05/25 02:09:10;;;;;;;0.7;0.7;;;;;;;11.9;100.0;101010;;;;
2022/05/25 02:10:10;;;;;;;0.7;0.7;;;;;;;11.9;100.0;101020;;;;
2022/05/25 02:11:03;;;;;;;0.7;0.7;;;;;;;11.9;100.0;101020;;;;
2022/05/25 02:12:07;;;;;;;0.7;0.7;;;;;;;11.9;100.0;101020;;;;
2022/05/25 02:13:10;;;;;;;0.7;0.7;;;;;;;11.9;100.0;101020;;;;
2022/05/25 02:14:03;;;;;;;0.7;0.7;;;;;;;11.8;100.0;101020;;;;
2022/05/25 02:15:10;;;;;;;0.7;0.7;;;;;;;11.8;100.0;101020;;;;
2022/05/25 02:16:01;;;;;;;0.7;0.7;;;;;;;11.8;100.0;101020;;;;
2022/05/25 02:17:10;;;;;;;0.7;0.7;;;;;;;11.8;100.0;101020;;;;
2022/05/25 02:18:04;;;;;;;0.7;0.7;;;;;;;11.8;100.0;101020;;;;
2022/05/25 02:19:10;;;;;;;0.7;0.7;;;;;;;11.8;100.0;101020;;;;
2022/05/25 02:20:00;;;;;;;0.7;0.7;;;;;;;11.7;100.0;101020;;;;
2022/05/25 02:21:01;;;;;;;0.7;0.7;;;;;;;11.7;100.0;101020;;;;
2022/05/25 02:22:10;;;;;;;0.8;0.8;;;;;;;11.8;100.0;101020;;;;
2022/05/25 02:23:04;;;;;;;0.8;0.8;;;;;;;11.8;100.0;101020;;;;
2022/05/25 02:24:09;;;;;;;0.8;0.8;;;;;;;11.8;100.0;101020;;;;
2022/05/25 02:25:06;;;;;;;0.8;0.8;;;;;;;11.8;100.0;101020;;;;
2022/05/25 02:26:10;;;;;;;0.8;0.8;;;;;;;11.8;100.0;101020;;;;
2022/05/25 02:27:03;;;;;;;0.8;0.8;;;;;;;11.8;100.0;101020;;;;
2022/05/25 02:28:01;;;;;;;0.8;0.8;;;;;;;11.8;100.0;101020;;;;
2022/05/25 02:29:10;;;;;;;0.8;0.8;;;;;;;11.8;100.0;101020;;;;
2022/05/25 02:30:03;;;;;;;0.8;0.8;;;;;;;11.7;100.0;101030;;;;
2022/05/25 02:31:01;;;;;;;0.8;0.8;;;;;;;11.7;100.0;101030;;;;
2022/05/25 02:32:05;;;;;;;0.8;0.8;;;;;;;11.7;100.0;101030;;;;
2022/05/25 02:33:02;;;;;;;0.8;0.8;;;;;;;11.7;100.0;101030;;;;
2022/05/25 02:34:01;;;;;;;0.8;0.8;;;;;;;11.7;100.0;101030;;;;
2022/05/25 02:35:01;;;;;;;0.8;0.8;;;;;;;11.7;100.0;101030;;;;
2022/05/25 02:36:01;;;;;;;0.8;0.8;;;;;;;11.7;100.0;101030;;;;
2022/05/25 02:37:00;;;;;;;0.8;0.8;;;;;;;11.7;100.0;101030;;;;
2022/05/25 02:38:02;;;;;;;0.8;0.8;;;;;;;11.6;100.0;101030;;;;
2022/05/25 02:39:02;;;;;;;0.8;0.8;;;;;;;11.6;100.0;101030;;;;
2022/05/25 02:40:01;;;;;;;0.8;0.8;;;;;;;11.6;100.0;101040;;;;
2022/05/25 02:41:02;;;;;;;0.8;0.8;;;;;;;11.6;100.0;101040;;;;
2022/05/25 02:42:00;;;;;;;0.8;0.8;;;;;;;11.6;100.0;101030;;;;
2022/05/25 02:43:00;;;;;;;0.7;0.7;;;;;;;11.6;100.0;101030;;;;
2022/05/25 02:44:01;;;;;;;0.7;0.7;;;;;;;11.6;100.0;101030;;;;
2022/05/25 02:45:00;;;;;;;0.7;0.7;;;;;;;11.6;100.0;101030;;;;
2022/05/25 02:46:00;;;;;;;0.7;0.7;;;;;;;11.5;100.0;101040;;;;
2022/05/25 02:47:00;;;;;;;0.7;0.7;;;;;;;11.5;100.0;101040;;;;
2022/05/25 02:48:00;;;;;;;0.7;0.7;;;;;;;11.5;100.0;101040;;;;
2022/05/25 02:49:00;;;;;;;0.7;0.7;;;;;;;11.5;100.0;101040;;;;
2022/05/25 02:50:00;;;;;;;0.7;0.7;;;;;;;11.5;100.0;101050;;;;
2022/05/25 02:51:00;;;;;;;0.7;0.7;;;;;;;11.5;100.0;101050;;;;
2022/05/25 02:52:00;;;;;;;0.7;0.7;;;;;;;11.5;100.0;101040;;;;
2022/05/25 02:53:00;;;;;;;0.7;0.7;;;;;;;11.5;100.0;101040;;;;
2022/05/25 02:54:00;;;;;;;0.7;0.7;;;;;;;11.5;100.0;101040;;;;
2022/05/25 02:55:00;;;;;;;0.7;0.7;;;;;;;11.5;100.0;101040;;;;
2022/05/25 02:56:00;;;;;;;0.7;0.7;;;;;;;11.5;100.0;101050;;;;
2022/05/25 02:57:00;;;;;;;0.7;0.7;;;;;;;11.5;100.0;101050;;;;
2022/05/25 02:58:00;;;;;;;0.7;0.7;;;;;;;11.5;100.0;101050;;;;
2022/05/25 02:59:00;;;;;;;0.7;0.7;;;;;;;11.5;100.0;101050;;;;
2022/05/25 03:00:00;;;;;;;0.7;0.7;;;;;;;11.5;100.0;101050;;;;
2022/05/25 03:01:00;;;;;;;0.7;0.7;;;;;;;11.5;100.0;101050;;;;
2022/05/25 03:02:02;;;;;;;0.6;0.6;;;;;;;11.3;100.0;101050;;;;
2022/05/25 03:03:00;;;;;;;0.6;0.6;;;;;;;11.3;100.0;101050;;;;
2022/05/25 03:04:00;;;;;;;0.6;0.6;;;;;;;11.4;100.0;101050;;;;
2022/05/25 03:05:00;;;;;;;0.6;0.6;;;;;;;11.4;100.0;101050;;;;
2022/05/25 03:06:00;;;;;;;0.6;0.6;;;;;;;11.4;100.0;101050;;;;
2022/05/25 03:07:00;;;;;;;0.6;0.6;;;;;;;11.4;100.0;101050;;;;
2022/05/25 03:08:00;;;;;;;0.6;0.6;;;;;;;11.4;100.0;101050;;;;
2022/05/25 03:09:00;;;;;;;0.6;0.6;;;;;;;11.4;100.0;101050;;;;
2022/05/25 03:10:00;;;;;;;0.6;0.6;;;;;;;11.4;100.0;101060;;;;
2022/05/25 03:11:00;;;;;;;0.6;0.6;;;;;;;11.4;100.0;101060;;;;
2022/05/25 03:12:02;;;;;;;0.6;0.6;;;;;;;11.4;100.0;101060;;;;
2022/05/25 03:13:01;;;;;;;0.6;0.6;;;;;;;11.4;100.0;101060;;;;
2022/05/25 03:14:00;;;;;;;0.6;0.6;;;;;;;11.3;100.0;101060;;;;
2022/05/25 03:15:00;;;;;;;0.6;0.6;;;;;;;11.3;100.0;101060;;;;
2022/05/25 03:16:00;;;;;;;0.6;0.6;;;;;;;11.3;100.0;101060;;;;
2022/05/25 03:17:10;;;;;;;0.6;0.6;;;;;;;11.3;100.0;101060;;;;
2022/05/25 03:18:00;;;;;;;0.6;0.6;;;;;;;11.3;100.0;101060;;;;
2022/05/25 03:19:00;;;;;;;0.6;0.6;;;;;;;11.3;100.0;101060;;;;
2022/05/25 03:20:00;;;;;;;0.6;0.6;;;;;;;11.2;100.0;101060;;;;
2022/05/25 03:21:00;;;;;;;0.6;0.6;;;;;;;11.2;100.0;101060;;;;
2022/05/25 03:22:00;;;;;;;0.8;0.8;;;;;;;11.3;100.0;101070;;;;
2022/05/25 03:23:00;;;;;;;0.8;0.8;;;;;;;11.3;100.0;101070;;;;
2022/05/25 03:24:00;;;;;;;0.8;0.8;;;;;;;11.3;100.0;101070;;;;
2022/05/25 03:25:00;;;;;;;0.8;0.8;;;;;;;11.3;100.0;101070;;;;
2022/05/25 03:26:00;;;;;;;0.8;0.8;;;;;;;11.2;100.0;101070;;;;
2022/05/25 03:27:00;;;;;;;0.8;0.8;;;;;;;11.2;100.0;101070;;;;
2022/05/25 03:28:02;;;;;;;0.8;0.8;;;;;;;11.1;100.0;101070;;;;
2022/05/25 03:29:00;;;;;;;0.8;0.8;;;;;;;11.1;100.0;101070;;;;
2022/05/25 03:30:00;;;;;;;0.8;0.8;;;;;;;11.1;100.0;101070;;;;
2022/05/25 03:31:00;;;;;;;0.8;0.8;;;;;;;11.1;100.0;101070;;;;
2022/05/25 03:32:00;;;;;;;0.8;0.8;;;;;;;11.1;100.0;101070;;;;
2022/05/25 03:33:00;;;;;;;0.8;0.8;;;;;;;11.1;100.0;101070;;;;
2022/05/25 03:34:00;;;;;;;0.8;0.8;;;;;;;11.1;100.0;101070;;;;
2022/05/25 03:35:00;;;;;;;0.8;0.8;;;;;;;11.1;100.0;101070;;;;
2022/05/25 03:36:00;;;;;;;0.8;0.8;;;;;;;11.1;100.0;101070;;;;
2022/05/25 03:37:00;;;;;;;0.8;0.8;;;;;;;11.1;100.0;101070;;;;
2022/05/25 03:38:01;;;;;;;0.8;0.8;;;;;;;11.2;100.0;101070;;;;
2022/05/25 03:39:00;;;;;;;0.8;0.8;;;;;;;11.2;100.0;101070;;;;
2022/05/25 03:40:00;;;;;;;0.8;0.8;;;;;;;11.2;100.0;101070;;;;
2022/05/25 03:41:00;;;;;;;0.8;0.8;;;;;;;11.2;100.0;101070;;;;
2022/05/25 03:42:04;;;;;;;0.9;0.9;;;;;;;11.2;100.0;101070;;;;
2022/05/25 03:43:00;;;;;;;0.9;0.9;;;;;;;11.2;100.0;101070;;;;
2022/05/25 03:44:00;;;;;;;0.9;0.9;;;;;;;11.3;100.0;101070;;;;
2022/05/25 03:45:01;;;;;;;0.9;0.9;;;;;;;11.3;100.0;101070;;;;
2022/05/25 03:46:00;;;;;;;0.9;0.9;;;;;;;11.2;100.0;101080;;;;
2022/05/25 03:47:00;;;;;;;0.9;0.9;;;;;;;11.2;100.0;101080;;;;
2022/05/25 03:48:00;;;;;;;0.9;0.9;;;;;;;11.1;100.0;101080;;;;
2022/05/25 03:49:00;;;;;;;0.9;0.9;;;;;;;11.1;100.0;101080;;;;
2022/05/25 03:50:00;;;;;;;0.9;0.9;;;;;;;11.1;100.0;101080;;;;
2022/05/25 03:51:00;;;;;;;0.9;0.9;;;;;;;11.1;100.0;101080;;;;
2022/05/25 03:52:00;;;;;;;0.9;0.9;;;;;;;11.1;100.0;101080;;;;
2022/05/25 03:53:00;;;;;;;0.9;0.9;;;;;;;11.1;100.0;101080;;;;
2022/05/25 03:54:00;;;;;;;0.9;0.9;;;;;;;11.1;100.0;101080;;;;
2022/05/25 03:55:00;;;;;;;0.9;0.9;;;;;;;11.1;100.0;101080;;;;
2022/05/25 03:56:00;;;;;;;0.9;0.9;;;;;;;11.1;100.0;101090;;;;
2022/05/25 03:57:00;;;;;;;0.9;0.9;;;;;;;11.1;100.0;101090;;;;
2022/05/25 03:58:00;;;;;;;0.9;0.9;;;;;;;11.1;100.0;101090;;;;
2022/05/25 03:59:00;;;;;;;0.9;0.9;;;;;;;11.1;100.0;101090;;;;
2022/05/25 04:00:00;;;;;;;0.9;0.9;;;;;;;11.1;100.0;101090;;;;
2022/05/25 04:01:00;;;;;;;0.9;0.9;;;;;;;11.1;100.0;101090;;;;
2022/05/25 04:02:01;;;;;;;0.8;0.8;;;;;;;11.0;100.0;101090;;;;
2022/05/25 04:03:02;;;;;;;0.8;0.8;;;;;;;11.0;100.0;101090;;;;
2022/05/25 04:04:00;;;;;;;0.8;0.8;;;;;;;11.0;100.0;101090;;;;
2022/05/25 04:05:07;;;;;;;0.8;0.8;;;;;;;11.0;100.0;101090;;;;
2022/05/25 04:06:00;;;;;;;0.8;0.8;;;;;;;11.1;100.0;101090;;;;
2022/05/25 04:07:00;;;;;;;0.8;0.8;;;;;;;11.1;100.0;101090;;;;
2022/05/25 04:08:04;;;;;;;0.8;0.8;;;;;;;11.0;100.0;101100;;;;
2022/05/25 04:09:00;;;;;;;0.8;0.8;;;;;;;11.0;100.0;101100;;;;
2022/05/25 04:10:00;;;;;;;0.8;0.8;;;;;;;10.9;100.0;101100;;;;
2022/05/25 04:11:00;;;;;;;0.8;0.8;;;;;;;10.9;100.0;101100;;;;
2022/05/25 04:12:00;;;;;;;0.8;0.8;;;;;;;10.9;100.0;101100;;;;
2022/05/25 04:13:01;;;;;;;0.8;0.8;;;;;;;10.9;100.0;101100;;;;
2022/05/25 04:14:00;;;;;;;0.8;0.8;;;;;;;10.9;100.0;101100;;;;
2022/05/25 04:15:00;;;;;;;0.8;0.8;;;;;;;10.9;100.0;101100;;;;
2022/05/25 04:16:00;;;;;;;0.8;0.8;;;;;;;10.9;100.0;101100;;;;
2022/05/25 04:17:00;;;;;;;0.8;0.8;;;;;;;10.9;100.0;101100;;;;
2022/05/25 04:18:00;;;;;;;0.8;0.8;;;;;;;10.9;100.0;101100;;;;
2022/05/25 04:19:00;;;;;;;0.8;0.8;;;;;;;10.9;100.0;101100;;;;
2022/05/25 04:20:00;;;;;;;0.8;0.8;;;;;;;11.0;100.0;101100;;;;
2022/05/25 04:21:00;;;;;;;0.8;0.8;;;;;;;11.0;100.0;101100;;;;
2022/05/25 04:22:00;;;;;;;0.8;0.8;;;;;;;10.9;100.0;101100;;;;
2022/05/25 04:23:00;;;;;;;0.8;0.8;;;;;;;10.9;100.0;101100;;;;
2022/05/25 04:24:00;;;;;;;0.8;0.8;;;;;;;11.0;100.0;101100;;;;
2022/05/25 04:25:01;;;;;;;0.8;0.8;;;;;;;11.0;100.0;101100;;;;
2022/05/25 04:26:00;;;;;;;0.8;0.8;;;;;;;11.0;100.0;101100;;;;
2022/05/25 04:27:00;;;;;;;0.8;0.8;;;;;;;11.0;100.0;101100;;;;
2022/05/25 04:28:00;;;;;;;0.8;0.8;;;;;;;11.0;100.0;101100;;;;
2022/05/25 04:29:00;;;;;;;0.8;0.8;;;;;;;11.0;100.0;101100;;;;
2022/05/25 04:30:00;;;;;;;0.8;0.8;;;;;;;11.0;100.0;101100;;;;
2022/05/25 04:31:01;;;;;;;0.8;0.8;;;;;;;11.0;100.0;101100;;;;
2022/05/25 04:32:00;;;;;;;0.8;0.8;;;;;;;10.9;100.0;101100;;;;
2022/05/25 04:33:01;;;;;;;0.8;0.8;;;;;;;10.9;100.0;101100;;;;
2022/05/25 04:34:00;;;;;;;0.8;0.8;;;;;;;11.0;100.0;101100;;;;
2022/05/25 04:35:00;;;;;;;0.8;0.8;;;;;;;11.0;100.0;101100;;;;
2022/05/25 04:36:00;;;;;;;0.8;0.8;;;;;;;11.0;100.0;101110;;;;
2022/05/25 04:37:48;;;;;;;0.8;0.8;;;;;;;11.0;100.0;101110;;;;
2022/05/25 04:38:00;;;;;;;0.8;0.8;;;;;;;11.0;100.0;101110;;;;
2022/05/25 04:39:00;;;;;;;0.8;0.8;;;;;;;11.0;100.0;101110;;;;
2022/05/25 04:40:00;;;;;;;0.8;0.8;;;;;;;11.0;100.0;101110;;;;
2022/05/25 04:41:01;;;;;;;0.8;0.8;;;;;;;11.0;100.0;101110;;;;
2022/05/25 04:42:00;;;;;;;0.7;0.7;;;;;;;10.9;100.0;101110;;;;
2022/05/25 04:43:04;;;;;;;0.7;0.7;;;;;;;10.9;100.0;101110;;;;
2022/05/25 04:44:00;;;;;;;0.7;0.7;;;;;;;11.0;100.0;101110;;;;
2022/05/25 04:45:00;;;;;;;0.7;0.7;;;;;;;11.0;100.0;101110;;;;
2022/05/25 04:46:05;;;;;;;0.7;0.7;;;;;;;11.0;100.0;101110;;;;
2022/05/25 04:47:00;;;;;;;0.7;0.7;;;;;;;11.0;100.0;101110;;;;
2022/05/25 04:48:01;;;;;;;0.7;0.7;;;;;;;11.0;100.0;101110;;;;
2022/05/25 04:49:00;;;;;;;0.7;0.7;;;;;;;11.0;100.0;101110;;;;
2022/05/25 04:50:00;;;;;;;0.7;0.7;;;;;;;11.1;100.0;101120;;;;
2022/05/25 04:51:00;;;;;;;0.7;0.7;;;;;;;11.1;100.0;101120;;;;
2022/05/25 04:54:00;;;;;;;0.7;0.7;;;;;;;11.2;100.0;101120;;;;
2022/05/25 04:55:00;;;;;;;0.7;0.7;;;;;;;11.2;100.0;101120;;;;
2022/05/25 04:58:00;;;;;;;0.7;0.7;;;;;;;11.0;100.0;101120;;;;
2022/05/25 04:59:00;;;;;;;0.7;0.7;;;;;;;11.0;100.0;101120;;;;
2022/05/25 05:00:04;;;;;;;0.7;0.7;;;;;;;11.1;100.0;101130;;;;
2022/05/25 05:01:00;;;;;;;0.7;0.7;;;;;;;11.1;100.0;101130;;;;
2022/05/25 05:02:00;;;;;;;0.7;0.7;;;;;;;11.2;100.0;101120;;;;
2022/05/25 05:03:00;;;;;;;0.7;0.7;;;;;;;11.2;100.0;101120;;;;
2022/05/25 05:04:00;;;;;;;0.7;0.7;;;;;;;11.2;100.0;101130;;;;
2022/05/25 05:05:00;;;;;;;0.7;0.7;;;;;;;11.2;100.0;101130;;;;
2022/05/25 05:06:00;;;;;;;0.7;0.7;;;;;;;11.2;100.0;101130;;;;
2022/05/25 05:07:00;;;;;;;0.7;0.7;;;;;;;11.2;100.0;101130;;;;
2022/05/25 05:08:00;;;;;;;0.7;0.7;;;;;;;11.2;100.0;101130;;;;
2022/05/25 05:09:00;;;;;;;0.7;0.7;;;;;;;11.2;100.0;101130;;;;
2022/05/25 05:10:01;;;;;;;0.7;0.7;;;;;;;11.2;100.0;101130;;;;
2022/05/25 05:11:09;;;;;;;0.7;0.7;;;;;;;11.2;100.0;101130;;;;
2022/05/25 05:12:00;;;;;;;0.7;0.7;;;;;;;11.3;100.0;101130;;;;
2022/05/25 05:13:04;;;;;;;0.7;0.7;;;;;;;11.3;100.0;101130;;;;
2022/05/25 05:14:00;;;;;;;0.7;0.7;;;;;;;11.4;100.0;101140;;;;
2022/05/25 05:15:00;;;;;;;0.7;0.7;;;;;;;11.4;100.0;101140;;;;
2022/05/25 05:16:03;;;;;;;0.7;0.7;;;;;;;11.5;100.0;101140;;;;
2022/05/25 05:17:01;;;;;;;0.7;0.7;;;;;;;11.5;100.0;101140;;;;
2022/05/25 05:18:00;;;;;;;0.7;0.7;;;;;;;11.5;100.0;101130;;;;
2022/05/25 05:19:00;;;;;;;0.7;0.7;;;;;;;11.5;100.0;101130;;;;
2022/05/25 05:20:00;;;;;;;0.7;0.7;;;;;;;11.6;100.0;101130;;;;
2022/05/25 05:21:00;;;;;;;0.7;0.7;;;;;;;11.6;100.0;101130;;;;
2022/05/25 05:22:00;;;;;;;0.6;0.6;;;;;;;11.6;100.0;101130;;;;
2022/05/25 05:23:00;;;;;;;0.6;0.6;;;;;;;11.6;100.0;101130;;;;
2022/05/25 05:24:00;;;;;;;0.6;0.6;;;;;;;11.7;100.0;101130;;;;
2022/05/25 05:25:00;;;;;;;0.6;0.6;;;;;;;11.7;100.0;101130;;;;
2022/05/25 05:26:00;;;;;;;0.6;0.6;;;;;;;11.7;100.0;101130;;;;
2022/05/25 05:27:00;;;;;;;0.6;0.6;;;;;;;11.7;100.0;101130;;;;
2022/05/25 05:28:06;;;;;;;0.6;0.6;;;;;;;11.7;100.0;101130;;;;
2022/05/25 05:29:00;;;;;;;0.6;0.6;;;;;;;11.7;100.0;101130;;;;
2022/05/25 05:30:02;;;;;;;0.6;0.6;;;;;;;11.8;100.0;101130;;;;
2022/05/25 05:31:02;;;;;;;0.6;0.6;;;;;;;11.8;100.0;101130;;;;
2022/05/25 05:32:00;;;;;;;0.6;0.6;;;;;;;11.8;100.0;101130;;;;
2022/05/25 05:33:00;;;;;;;0.6;0.6;;;;;;;11.8;100.0;101130;;;;
2022/05/25 05:34:00;;;;;;;0.6;0.6;;;;;;;11.7;100.0;101130;;;;
2022/05/25 05:35:00;;;;;;;0.6;0.6;;;;;;;11.7;100.0;101130;;;;
2022/05/25 05:36:00;;;;;;;0.6;0.6;;;;;;;11.7;100.0;101120;;;;
2022/05/25 05:37:02;;;;;;;0.6;0.6;;;;;;;11.7;100.0;101120;;;;
2022/05/25 05:38:00;;;;;;;0.6;0.6;;;;;;;11.9;100.0;101120;;;;
2022/05/25 05:39:03;;;;;;;0.6;0.6;;;;;;;11.9;100.0;101120;;;;
2022/05/25 05:40:01;;;;;;;0.6;0.6;;;;;;;11.9;100.0;101120;;;;
2022/05/25 05:41:00;;;;;;;0.6;0.6;;;;;;;11.9;100.0;101120;;;;
2022/05/25 05:42:03;;;;;;;2.0;1.9;;;;;;;12.0;100.0;101120;;;;
2022/05/25 05:43:01;;;;;;;2.0;1.9;;;;;;;12.0;100.0;101120;;;;
2022/05/25 05:44:00;;;;;;;2.0;1.9;;;;;;;12.0;100.0;101110;;;;
2022/05/25 05:45:04;;;;;;;2.0;1.9;;;;;;;12.0;100.0;101110;;;;
2022/05/25 05:46:00;;;;;;;2.0;1.9;;;;;;;12.0;100.0;101120;;;;
2022/05/25 05:47:01;;;;;;;2.0;1.9;;;;;;;12.0;100.0;101120;;;;
2022/05/25 05:48:06;;;;;;;2.0;1.9;;;;;;;12.1;100.0;101120;;;;
2022/05/25 05:49:00;;;;;;;2.0;1.9;;;;;;;12.1;100.0;101120;;;;
2022/05/25 05:50:01;;;;;;;2.0;1.9;;;;;;;12.2;100.0;101120;;;;
2022/05/25 05:51:01;;;;;;;2.0;1.9;;;;;;;12.2;100.0;101120;;;;
2022/05/25 05:52:00;;;;;;;2.0;1.9;;;;;;;12.2;100.0;101120;;;;
2022/05/25 05:53:00;;;;;;;2.0;1.9;;;;;;;12.2;100.0;101120;;;;
2022/05/25 05:54:02;;;;;;;2.0;1.9;;;;;;;12.2;100.0;101120;;;;
2022/05/25 05:55:00;;;;;;;2.0;1.9;;;;;;;12.2;100.0;101120;;;;
2022/05/25 05:56:00;;;;;;;2.0;1.9;;;;;;;12.3;100.0;101110;;;;
2022/05/25 05:57:00;;;;;;;2.0;1.9;;;;;;;12.3;100.0;101110;;;;
2022/05/25 05:58:00;;;;;;;2.0;1.9;;;;;;;12.2;100.0;101120;;;;
2022/05/25 05:59:00;;;;;;;2.0;1.9;;;;;;;12.2;100.0;101120;;;;
2022/05/25 06:00:00;;;;;;;2.0;1.9;;;;;;;12.4;100.0;101120;;;;
2022/05/25 06:01:00;;;;;;;2.0;1.9;;;;;;;12.4;100.0;101120;;;;
2022/05/25 06:02:00;;;;;;;0.6;0.6;;;;;;;12.5;100.0;101120;;;;
2022/05/25 06:03:01;;;;;;;0.6;0.6;;;;;;;12.5;100.0;101120;;;;
2022/05/25 06:04:00;;;;;;;0.6;0.6;;;;;;;12.5;100.0;101120;;;;
2022/05/25 06:05:00;;;;;;;0.6;0.6;;;;;;;12.5;100.0;101120;;;;
2022/05/25 06:06:00;;;;;;;0.6;0.6;;;;;;;12.6;100.0;101120;;;;
2022/05/25 06:07:00;;;;;;;0.6;0.6;;;;;;;12.6;100.0;101120;;;;
2022/05/25 06:08:09;;;;;;;0.6;0.6;;;;;;;12.6;100.0;101120;;;;
2022/05/25 06:09:01;;;;;;;0.6;0.6;;;;;;;12.6;100.0;101120;;;;
2022/05/25 06:10:00;;;;;;;0.6;0.6;;;;;;;12.7;100.0;101120;;;;
2022/05/25 06:11:00;;;;;;;0.6;0.6;;;;;;;12.7;100.0;101120;;;;
2022/05/25 06:12:00;;;;;;;0.6;0.6;;;;;;;12.7;100.0;101120;;;;
2022/05/25 06:13:00;;;;;;;0.6;0.6;;;;;;;12.7;100.0;101120;;;;
2022/05/25 06:14:00;;;;;;;0.6;0.6;;;;;;;12.7;100.0;101120;;;;
2022/05/25 06:19:25;;;;;;;0.6;0.6;;;;;;;12.7;100.0;101120;;;;
2022/05/25 06:20:04;;;;;;;0.6;0.6;;;;;;;12.9;100.0;101130;;;;
2022/05/25 06:21:00;;;;;;;0.6;0.6;;;;;;;12.9;100.0;101130;;;;
2022/05/25 06:22:01;;;;;;;0.6;0.6;;;;;;;13.0;100.0;101140;;;;
2022/05/25 06:23:00;;;;;;;0.6;0.6;;;;;;;13.0;100.0;101140;;;;
2022/05/25 06:24:00;;;;;;;0.6;0.6;;;;;;;13.0;100.0;101130;;;;
2022/05/25 06:25:00;;;;;;;0.6;0.6;;;;;;;13.0;100.0;101130;;;;
2022/05/25 06:26:00;;;;;;;0.6;0.6;;;;;;;13.1;100.0;101140;;;;
2022/05/25 06:27:01;;;;;;;0.6;0.6;;;;;;;13.1;100.0;101140;;;;
2022/05/25 06:28:00;;;;;;;0.6;0.6;;;;;;;13.2;100.0;101140;;;;
2022/05/25 06:29:01;;;;;;;0.6;0.6;;;;;;;13.2;100.0;101140;;;;
2022/05/25 06:30:00;;;;;;;0.6;0.6;;;;;;;13.2;100.0;101140;;;;
2022/05/25 06:31:00;;;;;;;0.6;0.6;;;;;;;13.2;100.0;101140;;;;
2022/05/25 06:32:00;;;;;;;0.6;0.6;;;;;;;13.2;100.0;101140;;;;
2022/05/25 06:33:00;;;;;;;0.6;0.6;;;;;;;13.2;100.0;101140;;;;
2022/05/25 06:34:00;;;;;;;0.6;0.6;;;;;;;13.2;100.0;101150;;;;
2022/05/25 06:35:00;;;;;;;0.6;0.6;;;;;;;13.2;100.0;101150;;;;